Time,TemperatureF,DewpointF,PressureIn,WindDirection,WindDirectionDegrees,WindSpeedMPH,WindSpeedGustMPH,Humidity,HourlyPrecipIn,Conditions,Clouds,dailyrainin,SoftwareType,DateUTC
2013-03-30 00:02:00,38.0,33.0,-100.00,SE,145,6.0,6.0,80,0.00,,,-99.99,,2013-03-30 05:02:00,
2013-03-30 00:12:00,39.0,33.0,-100.00,SE,140,6.0,6.0,81,0.00,,,-99.99,,2013-03-30 05:12:00,
2013-03-30 00:22:00,39.0,33.0,-100.00,SE,140,5.0,6.0,80,0.00,,,-99.99,,2013-03-30 05:22:00,
2013-03-30 00:32:00,38.0,33.0,-100.00,SE,140,6.0,6.0,82,0.00,,,-99.99,,2013-03-30 05:32:00,
2013-03-30 00:42:00,38.0,33.0,-100.00,SE,140,6.0,6.0,82,0.00,,,-99.99,,2013-03-30 05:42:00,
2013-03-30 00:52:00,38.0,33.0,-100.00,SE,140,6.0,6.0,81,0.00,,,-99.99,,2013-03-30 05:52:00,
2013-03-30 01:02:00,38.0,33.0,-100.00,SE,140,6.0,6.0,81,0.00,,,-99.99,,2013-03-30 06:02:00,
2013-03-30 01:11:00,39.0,34.0,-100.00,SE,140,6.0,7.0,81,0.00,,,-99.99,,2013-03-30 06:11:00,
2013-03-30 01:22:00,38.0,33.0,-100.00,SE,145,7.0,7.0,83,0.00,,,-99.99,,2013-03-30 06:22:00,
2013-03-30 01:32:00,37.0,33.0,-100.00,SSE,150,6.0,7.0,84,0.00,,,-99.99,,2013-03-30 06:32:00,
2013-03-30 01:42:00,37.0,33.0,-100.00,SSE,150,6.0,7.0,84,0.00,,,-99.99,,2013-03-30 06:42:00,
2013-03-30 01:52:00,37.0,33.0,-100.00,SSE,155,5.0,6.0,86,0.00,,,-99.99,,2013-03-30 06:52:00,
2013-03-30 02:02:00,37.0,33.0,-100.00,SSE,155,5.0,6.0,86,0.00,,,-99.99,,2013-03-30 07:02:00,
2013-03-30 02:12:00,36.0,33.0,-100.00,SSE,160,5.0,6.0,87,0.00,,,-99.99,,2013-03-30 07:12:00,
2013-03-30 02:22:00,36.0,33.0,-100.00,SSE,155,4.0,6.0,87,0.00,,,-99.99,,2013-03-30 07:22:00,
2013-03-30 02:32:00,36.0,33.0,-100.00,SE,145,6.0,6.0,88,0.00,,,-99.99,,2013-03-30 07:32:00,
2013-03-30 02:42:00,36.0,33.0,-100.00,SE,145,6.0,6.0,88,0.00,,,-99.99,,2013-03-30 07:42:00,
2013-03-30 02:52:00,36.0,33.0,-100.00,SE,145,4.0,5.0,89,0.00,,,-99.99,,2013-03-30 07:52:00,
2013-03-30 03:02:00,36.0,33.0,-100.00,SE,145,4.0,5.0,89,0.00,,,-99.99,,2013-03-30 08:02:00,
2013-03-30 03:12:00,35.0,32.0,-100.00,SE,145,4.0,5.0,89,0.00,,,-99.99,,2013-03-30 08:12:00,
2013-03-30 03:21:00,35.0,33.0,-100.00,SSE,150,4.0,4.0,91,0.00,,,-99.99,,2013-03-30 08:21:00,
2013-03-30 03:32:00,36.0,34.0,-100.00,SSE,155,4.0,4.0,92,0.00,,,-99.99,,2013-03-30 08:32:00,
2013-03-30 03:42:00,36.0,34.0,-100.00,SSE,155,4.0,4.0,92,0.00,,,-99.99,,2013-03-30 08:42:00,
2013-03-30 03:52:00,38.0,36.0,-100.00,SE,140,3.0,4.0,92,0.00,,,-99.99,,2013-03-30 08:52:00,
2013-03-30 04:02:00,38.0,36.0,-100.00,SE,140,3.0,4.0,92,0.00,,,-99.99,,2013-03-30 09:02:00,
2013-03-30 04:12:00,39.0,37.0,-100.00,SSE,155,4.0,4.0,92,0.00,,,-99.99,,2013-03-30 09:12:00,
2013-03-30 04:22:00,39.0,37.0,-100.00,SSE,160,4.0,4.0,92,0.00,,,-99.99,,2013-03-30 09:22:00,
2013-03-30 04:42:00,40.0,38.0,-100.00,SSE,155,5.0,6.0,92,0.00,,,-99.99,,2013-03-30 09:42:00,
2013-03-30 04:53:00,41.0,39.0,-100.00,SSE,150,5.0,6.0,92,0.00,,,-99.99,,2013-03-30 09:53:00,
2013-03-30 05:02:00,41.0,39.0,-100.00,SSE,150,5.0,6.0,92,0.00,,,-99.99,,2013-03-30 10:02:00,
2013-03-30 05:12:00,41.0,39.0,-100.00,SSE,150,5.0,6.0,92,0.00,,,-99.99,,2013-03-30 10:12:00,
2013-03-30 05:23:00,42.0,39.0,-100.00,SE,125,7.0,9.0,91,0.00,,,-99.99,,2013-03-30 10:23:00,
2013-03-30 05:33:00,42.0,40.0,-100.00,SE,145,6.0,7.0,91,0.00,,,-99.99,,2013-03-30 10:33:00,
2013-03-30 05:42:00,42.0,40.0,-100.00,SE,145,6.0,7.0,91,0.00,,,-99.99,,2013-03-30 10:42:00,
2013-03-30 05:52:00,41.0,39.0,-100.00,SSE,160,4.0,6.0,91,0.00,,,-99.99,,2013-03-30 10:52:00,
2013-03-30 06:03:00,41.0,39.0,-100.00,SSE,160,4.0,6.0,91,0.00,,,-99.99,,2013-03-30 11:03:00,
2013-03-30 06:12:00,41.0,39.0,-100.00,SSE,155,4.0,5.0,92,0.00,,,-99.99,,2013-03-30 11:12:00,
2013-03-30 06:22:00,41.0,39.0,-100.00,SSE,155,4.0,5.0,92,0.00,,,-99.99,,2013-03-30 11:22:00,
2013-03-30 06:33:00,42.0,40.0,-100.00,SE,140,6.0,6.0,93,0.00,,,-99.99,,2013-03-30 11:33:00,
2013-03-30 06:42:00,42.0,40.0,-100.00,SE,140,6.0,6.0,93,0.00,,,-99.99,,2013-03-30 11:42:00,
2013-03-30 06:52:00,42.0,41.0,-100.00,SSE,160,4.0,6.0,92,0.00,,,-99.99,,2013-03-30 11:52:00,
2013-03-30 07:02:00,42.0,41.0,-100.00,SSE,160,4.0,6.0,92,0.00,,,-99.99,,2013-03-30 12:02:00,
2013-03-30 07:12:00,42.0,41.0,-100.00,SSE,150,3.0,4.0,92,0.00,,,-99.99,,2013-03-30 12:12:00,
2013-03-30 07:22:00,43.0,41.0,-100.00,SE,145,3.0,4.0,92,0.00,,,-99.99,,2013-03-30 12:22:00,
2013-03-30 07:32:00,43.0,41.0,-100.00,SE,125,4.0,5.0,92,0.00,,,-99.99,,2013-03-30 12:32:00,
2013-03-30 07:42:00,43.0,41.0,-100.00,SE,125,4.0,5.0,92,0.00,,,-99.99,,2013-03-30 12:42:00,
2013-03-30 07:52:00,44.0,42.0,-100.00,SE,125,4.0,4.0,92,0.00,,,-99.99,,2013-03-30 12:52:00,
2013-03-30 08:02:00,44.0,42.0,-100.00,SE,125,4.0,4.0,92,0.00,,,-99.99,,2013-03-30 13:02:00,
2013-03-30 08:12:00,44.0,42.0,-100.00,SE,125,4.0,5.0,91,0.00,,,-99.99,,2013-03-30 13:12:00,
2013-03-30 08:22:00,44.0,42.0,-100.00,ESE,105,1.0,4.0,91,0.00,,,-99.99,,2013-03-30 13:22:00,
2013-03-30 08:32:00,44.0,42.0,-100.00,East,95,4.0,4.0,92,0.00,,,-99.99,,2013-03-30 13:32:00,
2013-03-30 08:42:00,44.0,42.0,-100.00,East,95,4.0,4.0,92,0.00,,,-99.99,,2013-03-30 13:42:00,
2013-03-30 08:52:00,45.0,43.0,-100.00,ESE,110,4.0,6.0,92,0.00,,,-99.99,,2013-03-30 13:52:00,
2013-03-30 09:02:00,45.0,43.0,-100.00,ESE,110,4.0,6.0,92,0.00,,,-99.99,,2013-03-30 14:02:00,
2013-03-30 09:11:00,45.0,44.0,-100.00,SSE,155,3.0,6.0,92,0.00,,,-99.99,,2013-03-30 14:11:00,
2013-03-30 09:22:00,45.0,44.0,-100.00,SSE,150,3.0,4.0,92,0.03,,,-99.99,,2013-03-30 14:22:00,
2013-03-30 09:32:00,45.0,44.0,-100.00,SE,135,4.0,5.0,95,0.00,,,-99.99,,2013-03-30 14:32:00,
2013-03-30 09:42:00,45.0,44.0,-100.00,SE,135,4.0,5.0,95,0.00,,,-99.99,,2013-03-30 14:42:00,
2013-03-30 09:52:00,45.0,44.0,-100.00,SE,140,4.0,4.0,96,0.06,,,-99.99,,2013-03-30 14:52:00,
2013-03-30 10:02:00,45.0,44.0,-100.00,SE,140,4.0,4.0,96,0.06,,,-99.99,,2013-03-30 15:02:00,
2013-03-30 10:12:00,45.0,45.0,-100.00,SE,130,4.0,6.0,97,0.06,,,-99.99,,2013-03-30 15:12:00,
2013-03-30 10:22:00,45.0,45.0,-100.00,ESE,120,4.0,6.0,98,0.03,,,-99.99,,2013-03-30 15:22:00,
2013-03-30 10:33:00,45.0,45.0,-100.00,SE,135,3.0,4.0,98,0.03,,,-99.99,,2013-03-30 15:33:00,
2013-03-30 10:43:00,45.0,45.0,-100.00,SE,135,3.0,4.0,98,0.03,,,-99.99,,2013-03-30 15:43:00,
2013-03-30 10:52:00,46.0,46.0,-100.00,SE,125,4.0,7.0,99,0.03,,,-99.99,,2013-03-30 15:52:00,
2013-03-30 11:03:00,46.0,46.0,-100.00,SE,125,4.0,7.0,99,0.03,,,-99.99,,2013-03-30 16:03:00,
2013-03-30 11:13:00,46.0,46.0,-100.00,SE,125,5.0,7.0,99,0.01,,,-99.99,,2013-03-30 16:13:00,
2013-03-30 11:23:00,46.0,46.0,-100.00,ESE,110,1.0,6.0,99,0.01,,,-99.99,,2013-03-30 16:23:00,
2013-03-30 11:33:00,47.0,47.0,-100.00,ESE,115,1.0,6.0,99,0.00,,,-99.99,,2013-03-30 16:33:00,
2013-03-30 11:43:00,47.0,47.0,-100.00,ESE,115,1.0,6.0,99,0.00,,,-99.99,,2013-03-30 16:43:00,
2013-03-30 11:52:00,47.0,47.0,-100.00,SE,135,7.0,11.0,99,0.00,,,-99.99,,2013-03-30 16:52:00,
2013-03-30 12:02:00,47.0,47.0,-100.00,SE,135,7.0,11.0,99,0.00,,,-99.99,,2013-03-30 17:02:00,
2013-03-30 12:13:00,47.0,47.0,-100.00,SE,145,6.0,7.0,99,0.00,,,-99.99,,2013-03-30 17:13:00,
2013-03-30 12:22:00,47.0,47.0,-100.00,SSE,160,7.0,10.0,99,0.00,,,-99.99,,2013-03-30 17:22:00,
2013-03-30 12:32:00,48.0,48.0,-100.00,South,180,6.0,9.0,99,0.00,,,-99.99,,2013-03-30 17:32:00,
2013-03-30 12:42:00,48.0,48.0,-100.00,South,180,6.0,9.0,99,0.00,,,-99.99,,2013-03-30 17:42:00,
2013-03-30 12:52:00,48.0,48.0,-100.00,SE,145,7.0,8.0,99,0.00,,,-99.99,,2013-03-30 17:52:00,
2013-03-30 13:03:00,49.0,49.0,-100.00,SE,145,7.0,11.0,99,0.00,,,-99.99,,2013-03-30 18:03:00,
2013-03-30 13:12:00,49.0,49.0,-100.00,SSE,165,4.0,7.0,98,0.00,,,-99.99,,2013-03-30 18:12:00,
2013-03-30 13:22:00,49.0,49.0,-100.00,South,180,4.0,6.0,98,0.00,,,-99.99,,2013-03-30 18:22:00,
2013-03-30 13:32:00,50.0,49.0,-100.00,SSE,155,7.0,9.0,98,0.00,,,-99.99,,2013-03-30 18:32:00,
2013-03-30 13:42:00,50.0,49.0,-100.00,SSE,155,7.0,9.0,98,0.00,,,-99.99,,2013-03-30 18:42:00,
2013-03-30 13:53:00,51.0,50.0,-100.00,SSE,160,9.0,12.0,96,0.00,,,-99.99,,2013-03-30 18:53:00,
2013-03-30 14:03:00,51.0,50.0,-100.00,SSE,160,9.0,12.0,96,0.00,,,-99.99,,2013-03-30 19:03:00,
2013-03-30 14:13:00,52.0,50.0,-100.00,South,180,9.0,12.0,93,0.00,,,-99.99,,2013-03-30 19:13:00,
2013-03-30 14:22:00,52.0,49.0,-100.00,South,180,10.0,12.0,91,0.00,,,-99.99,,2013-03-30 19:22:00,
2013-03-30 14:32:00,52.0,49.0,-100.00,South,185,9.0,13.0,89,0.00,,,-99.99,,2013-03-30 19:32:00,
2013-03-30 14:42:00,52.0,49.0,-100.00,South,185,9.0,13.0,89,0.00,,,-99.99,,2013-03-30 19:42:00,
2013-03-30 14:52:00,52.0,49.0,-100.00,South,180,8.0,12.0,88,0.00,,,-99.99,,2013-03-30 19:52:00,
2013-03-30 15:02:00,52.0,49.0,-100.00,South,180,8.0,12.0,88,0.00,,,-99.99,,2013-03-30 20:02:00,
2013-03-30 15:12:00,52.0,49.0,-100.00,South,185,8.0,12.0,88,0.00,,,-99.99,,2013-03-30 20:12:00,
2013-03-30 15:22:00,52.0,49.0,-100.00,South,185,7.0,12.0,88,0.00,,,-99.99,,2013-03-30 20:22:00,
2013-03-30 15:32:00,52.0,49.0,-100.00,South,190,10.0,13.0,88,0.00,,,-99.99,,2013-03-30 20:32:00,
2013-03-30 15:42:00,52.0,49.0,-100.00,South,190,10.0,13.0,88,0.00,,,-99.99,,2013-03-30 20:42:00,
2013-03-30 15:52:00,51.0,48.0,-100.00,SSW,205,10.0,12.0,88,0.00,,,-99.99,,2013-03-30 20:52:00,
2013-03-30 16:02:00,51.0,48.0,-100.00,SSW,205,10.0,12.0,88,0.00,,,-99.99,,2013-03-30 21:02:00,
2013-03-30 16:12:00,51.0,49.0,-100.00,SSW,195,8.0,14.0,89,0.00,,,-99.99,,2013-03-30 21:12:00,
2013-03-30 16:22:00,51.0,49.0,-100.00,SSW,195,9.0,11.0,90,0.00,,,-99.99,,2013-03-30 21:22:00,
2013-03-30 16:33:00,52.0,49.0,-100.00,SSW,200,10.0,12.0,91,0.00,,,-99.99,,2013-03-30 21:33:00,
2013-03-30 16:43:00,52.0,49.0,-100.00,SSW,200,10.0,12.0,91,0.00,,,-99.99,,2013-03-30 21:43:00,
2013-03-30 16:52:00,52.0,49.0,-100.00,SSW,200,9.0,11.0,91,0.00,,,-99.99,,2013-03-30 21:52:00,
2013-03-30 17:03:00,52.0,49.0,-100.00,SSW,200,9.0,11.0,91,0.00,,,-99.99,,2013-03-30 22:03:00,
2013-03-30 17:13:00,51.0,49.0,-100.00,SSW,200,9.0,11.0,92,0.00,,,-99.99,,2013-03-30 22:13:00,
2013-03-30 17:23:00,51.0,49.0,-100.00,SSW,205,7.0,11.0,92,0.00,,,-99.99,,2013-03-30 22:23:00,
2013-03-30 17:33:00,51.0,49.0,-100.00,SSW,195,7.0,9.0,93,0.00,,,-99.99,,2013-03-30 22:33:00,
2013-03-30 17:43:00,51.0,49.0,-100.00,SSW,195,7.0,9.0,93,0.00,,,-99.99,,2013-03-30 22:43:00,
2013-03-30 17:53:00,51.0,50.0,-100.00,South,190,7.0,9.0,94,0.00,,,-99.99,,2013-03-30 22:53:00,
2013-03-30 18:02:00,51.0,50.0,-100.00,South,190,7.0,9.0,94,0.00,,,-99.99,,2013-03-30 23:02:00,
2013-03-30 18:12:00,52.0,50.0,-100.00,SSW,195,6.0,7.0,94,0.00,,,-99.99,,2013-03-30 23:12:00,
2013-03-30 18:22:00,51.0,50.0,-100.00,SSW,205,6.0,9.0,94,0.00,,,-99.99,,2013-03-30 23:22:00,
2013-03-30 18:32:00,51.0,50.0,-100.00,SW,215,6.0,6.0,95,0.00,,,-99.99,,2013-03-30 23:32:00,
2013-03-30 18:42:00,51.0,50.0,-100.00,SW,215,6.0,6.0,95,0.00,,,-99.99,,2013-03-30 23:42:00,
2013-03-30 18:52:00,51.0,50.0,-100.00,SW,215,4.0,6.0,95,0.00,,,-99.99,,2013-03-30 23:52:00,
2013-03-30 19:02:00,51.0,50.0,-100.00,SW,215,4.0,6.0,95,0.00,,,-99.99,,2013-03-31 00:02:00,
2013-03-30 19:12:00,51.0,50.0,-100.00,SW,220,3.0,4.0,95,0.00,,,-99.99,,2013-03-31 00:12:00,
2013-03-30 19:22:00,51.0,50.0,-100.00,WSW,240,2.0,4.0,96,0.00,,,-99.99,,2013-03-31 00:22:00,
2013-03-30 19:32:00,51.0,50.0,-100.00,West,270,3.0,6.0,96,0.00,,,-99.99,,2013-03-31 00:32:00,
2013-03-30 19:42:00,51.0,50.0,-100.00,West,270,3.0,6.0,96,0.00,,,-99.99,,2013-03-31 00:42:00,
2013-03-30 19:52:00,50.0,49.0,-100.00,SW,230,3.0,4.0,96,0.00,,,-99.99,,2013-03-31 00:52:00,
2013-03-30 20:02:00,50.0,49.0,-100.00,SW,230,3.0,4.0,96,0.00,,,-99.99,,2013-03-31 01:02:00,
2013-03-30 20:12:00,49.0,49.0,-100.00,WSW,245,4.0,4.0,96,0.00,,,-99.99,,2013-03-31 01:12:00,
2013-03-30 20:22:00,49.0,48.0,-100.00,WSW,250,3.0,3.0,97,0.00,,,-99.99,,2013-03-31 01:22:00,
2013-03-30 20:32:00,48.0,48.0,-100.00,WSW,245,2.0,2.0,98,0.00,,,-99.99,,2013-03-31 01:32:00,
2013-03-30 20:42:00,48.0,48.0,-100.00,WSW,245,2.0,2.0,98,0.00,,,-99.99,,2013-03-31 01:42:00,
2013-03-30 20:52:00,43.0,43.0,-100.00,SW,230,3.0,4.0,98,0.00,,,-99.99,,2013-03-31 01:52:00,
2013-03-30 21:02:00,43.0,43.0,-100.00,SW,230,3.0,4.0,98,0.00,,,-99.99,,2013-03-31 02:02:00,
2013-03-30 21:12:00,43.0,43.0,-100.00,SW,220,2.0,4.0,98,0.00,,,-99.99,,2013-03-31 02:12:00,
2013-03-30 21:22:00,41.0,41.0,-100.00,SW,220,2.0,3.0,98,0.00,,,-99.99,,2013-03-31 02:22:00,
2013-03-30 21:32:00,42.0,42.0,-100.00,SW,225,2.0,3.0,99,0.00,,,-99.99,,2013-03-31 02:32:00,
2013-03-30 21:42:00,42.0,42.0,-100.00,SW,225,2.0,3.0,99,0.00,,,-99.99,,2013-03-31 02:42:00,
2013-03-30 21:52:00,42.0,42.0,-100.00,SW,230,2.0,3.0,99,0.00,,,-99.99,,2013-03-31 02:52:00,
2013-03-30 22:02:00,42.0,42.0,-100.00,SW,230,2.0,3.0,99,0.00,,,-99.99,,2013-03-31 03:02:00,
2013-03-30 22:12:00,41.0,41.0,-100.00,SW,220,2.0,2.0,99,0.00,,,-99.99,,2013-03-31 03:12:00,
2013-03-30 22:22:00,40.0,40.0,-100.00,SW,215,2.0,2.0,99,0.00,,,-99.99,,2013-03-31 03:22:00,
2013-03-30 22:33:00,41.0,41.0,-100.00,SW,220,2.0,3.0,99,0.00,,,-99.99,,2013-03-31 03:33:00,
2013-03-30 22:43:00,41.0,41.0,-100.00,SW,220,2.0,3.0,99,0.00,,,-99.99,,2013-03-31 03:43:00,
2013-03-30 22:53:00,41.0,41.0,-100.00,SW,225,3.0,3.0,99,0.00,,,-99.99,,2013-03-31 03:53:00,
2013-03-30 23:02:00,41.0,-99.9,-100.00,SW,225,3.0,3.0,99,0.00,,,-99.99,,2013-03-31 04:02:00,
2013-03-30 23:13:00,40.0,40.0,-100.00,SW,225,2.0,3.0,99,0.00,,,-99.99,,2013-03-31 04:13:00,
2013-03-30 23:23:00,40.0,40.0,-100.00,SW,225,2.0,3.0,99,0.00,,,-99.99,,2013-03-31 04:23:00,
2013-03-30 23:32:00,41.0,41.0,-100.00,SW,230,4.0,5.0,99,0.00,,,-99.99,,2013-03-31 04:32:00,
2013-03-30 23:42:00,41.0,41.0,-100.00,SW,230,4.0,5.0,99,0.00,,,-99.99,,2013-03-31 04:42:00,
2013-03-30 23:52:00,41.0,41.0,-100.00,WSW,250,4.0,4.0,99,0.00,,,-99.99,,2013-03-31 04:52:00,